Aérodrome :
LOGIN :

S'inscrire | Disclaimer

   EN    FR    IT 

 










Légende :    VFR   VFR Marginal   IFR   IFR Intensif   IFR Très Intensif
Visi : 
Plafond : 
>= 8 km
>= 3000ft
5 à 8 km
1000 à 3000 ft
1500m à 5 km
500 à 1000 ft
800 à 1500m
200 à 500 ft
< 800m
< 200 ft
Symboles :   Orages  Brouillard  Fortes neiges  Fortes précipitations  Vent > 20 kt
SIGMETs :   Divers  Orages  Givrage  Turbulence  Onde Orograph.  Cendres Volcan.







- Altitude de l'aérodrome : 645 ft
- Code IATA : DLE
- Voir les cartes d'approche


LFGJ - Dole Tavaux

DERNIER METAR :
  • 232130Z AUTO 20006KT 140V220 9999 ///CB 15/11 Q0999

METARs EXPIRÉS :
  • 232100Z AUTO 20004KT 150V210 9999 ///CB 15/12 Q0999
  • 232030Z AUTO 15004KT 9999 ///TCU 15/12 Q0999
  • 232000Z AUTO 14006KT 9999 ///TCU 15/12 Q0998
  • 231930Z AUTO 16006KT CAVOK 16/13 Q0998
  • 231900Z AUTO 13002KT 9999 ///TCU 17/12 Q0997

TAF TAF LFGJ
Valide du 23 à 15h jusqu'au 24 à 00h UTC


231400Z 2315/2324 21010KT CAVOK
PROB40
TEMPO 2315/2320 FEW060TCU FEW065CB
Pas de NOTAMs connus pour ce terrain.



MET'MAP, la Météo Aéronautique d'un coup d'oeil ! - Copyright ORBIFLY Décembre 2007 - Disclaimer

ORBIFLY MET'MAP TEAM :

Programmation & Développement : Alexandra Zaïnal
Conception & Développement : Baudouin d'Aumeries
Co-Programmation & Développement : Marc-Olivier Méhu
Soutien technique & logistique : Manuel Goepfert

Contact : metmap@orbifly.com




SOURCES & CREDITS :

   NOAA